createdAt,value
2024-02-02T05:00:33.128Z,999.90
2024-02-02T05:03:36.526Z,999.90
2024-02-02T05:06:39.472Z,999.90
2024-02-02T05:09:42.476Z,999.90
2024-02-02T05:12:45.882Z,999.90
2024-02-02T05:15:49.095Z,999.90
2024-02-02T05:18:52.381Z,999.90
2024-02-02T05:21:55.439Z,999.90
2024-02-02T05:24:58.188Z,999.90
2024-02-02T05:28:01.845Z,999.90
2024-02-02T05:31:04.731Z,999.90
2024-02-02T05:34:08.004Z,999.90
2024-02-02T05:37:10.985Z,999.90
2024-02-02T05:40:14.131Z,999.90
2024-02-02T05:43:16.814Z,999.90
2024-02-02T05:46:20.754Z,999.90
2024-02-02T05:49:24.180Z,999.90
2024-02-02T05:52:27.399Z,999.90
2024-02-02T05:55:30.125Z,999.90
2024-02-02T05:58:33.106Z,999.90
2024-02-02T06:01:35.813Z,999.90
2024-02-02T06:04:38.982Z,999.90
2024-02-02T06:07:41.905Z,999.90
2024-02-02T06:10:47.195Z,999.90
2024-02-02T06:13:57.103Z,999.90
2024-02-02T06:17:00.617Z,992.08
2024-02-02T06:20:04.358Z,999.90
2024-02-02T06:23:10.587Z,999.90
2024-02-02T06:26:13.448Z,999.90
2024-02-02T06:29:16.569Z,999.90
2024-02-02T06:32:22.253Z,999.90
2024-02-02T06:35:25.313Z,999.90
2024-02-02T06:38:28.204Z,999.90
2024-02-02T06:41:32.586Z,999.90
2024-02-02T06:44:37.014Z,999.90
2024-02-02T06:47:41.300Z,999.90
2024-02-02T06:50:45.751Z,999.90
2024-02-02T06:53:54.591Z,999.90
2024-02-02T06:56:57.388Z,999.90
2024-02-02T07:00:01.618Z,999.90
2024-02-02T07:03:07.399Z,999.90
2024-02-02T07:06:10.605Z,999.90
2024-02-02T07:09:19.505Z,999.90
2024-02-02T07:12:58.235Z,999.90
2024-02-02T07:16:01.505Z,999.90
2024-02-02T07:19:05.227Z,999.90
2024-02-02T07:22:39.221Z,999.90
2024-02-02T07:25:43.966Z,999.90
2024-02-02T07:28:46.748Z,951.30
2024-02-02T07:31:49.710Z,962.50
2024-02-02T07:34:56.172Z,999.90
2024-02-02T07:38:07.714Z,999.90
2024-02-02T07:44:16.507Z,999.90
2024-02-02T07:47:19.293Z,999.90
2024-02-02T07:50:22.251Z,999.90
2024-02-02T07:53:25.369Z,998.83
2024-02-02T07:56:28.362Z,999.90
2024-02-02T07:59:31.095Z,996.30
2024-02-02T08:02:34.130Z,999.90
2024-02-02T08:05:38.565Z,999.90
2024-02-02T08:08:41.401Z,999.90
2024-02-02T08:11:44.456Z,999.90
2024-02-02T08:14:47.571Z,990.92
2024-02-02T08:17:52.146Z,999.90
2024-02-02T08:20:55.021Z,999.90
2024-02-02T08:23:59.561Z,994.47
2024-02-02T08:27:02.562Z,999.90
2024-02-02T08:30:09.692Z,999.90
2024-02-02T08:33:14.712Z,999.20
2024-02-02T08:36:19.587Z,999.90
2024-02-02T08:39:22.964Z,999.90
2024-02-02T08:42:26.422Z,996.45
2024-02-02T08:45:44.647Z,961.42
2024-02-02T08:48:50.166Z,999.90
2024-02-02T08:51:53.340Z,991.65
2024-02-02T08:54:56.437Z,973.70
2024-02-02T08:58:22.146Z,993.88
2024-02-02T09:01:43.860Z,999.90
2024-02-02T09:05:11.272Z,999.90
2024-02-02T09:08:17.156Z,996.67
2024-02-02T09:11:22.606Z,984.92
2024-02-02T09:14:27.619Z,985.70
2024-02-02T09:17:31.604Z,990.00
2024-02-02T09:20:34.562Z,949.35
2024-02-02T09:23:37.894Z,949.13
2024-02-02T09:26:41.418Z,966.05
2024-02-02T09:29:46.394Z,929.42
2024-02-02T09:32:50.100Z,990.50
2024-02-02T09:35:56.113Z,936.45
2024-02-02T09:39:19.118Z,899.05
2024-02-02T09:42:56.311Z,896.92
2024-02-02T09:45:59.328Z,943.58
2024-02-02T09:49:37.594Z,985.62
2024-02-02T09:53:02.459Z,939.00
2024-02-02T09:56:33.933Z,970.15
2024-02-02T10:00:02.768Z,884.83
2024-02-02T10:03:21.942Z,955.80
2024-02-02T10:06:46.437Z,976.28
2024-02-02T10:10:11.838Z,947.63
2024-02-02T10:13:33.663Z,934.92
2024-02-02T10:16:55.711Z,975.65
2024-02-02T10:20:19.018Z,953.80
2024-02-02T10:23:42.659Z,920.65
2024-02-02T10:27:25.975Z,861.97
2024-02-02T10:30:39.234Z,996.08
2024-02-02T10:33:48.193Z,972.58
2024-02-02T10:37:00.109Z,955.33
2024-02-02T10:40:07.899Z,791.00
2024-02-02T10:43:34.591Z,812.80
2024-02-02T10:46:51.855Z,878.03
2024-02-02T10:50:19.105Z,841.25
2024-02-02T10:53:48.773Z,906.42
2024-02-02T10:57:01.189Z,937.37
2024-02-02T11:00:25.669Z,988.95
2024-02-02T11:03:35.966Z,999.35
2024-02-02T11:06:56.671Z,930.17
2024-02-02T11:10:12.861Z,941.13
2024-02-02T11:13:31.118Z,950.42
2024-02-02T11:16:52.887Z,916.72
2024-02-02T11:20:34.222Z,961.00
2024-02-02T11:23:42.374Z,950.65
2024-02-02T11:26:55.918Z,880.20
2024-02-02T11:30:08.646Z,998.45
2024-02-02T11:33:27.053Z,897.75
2024-02-02T11:37:08.374Z,931.63
2024-02-02T11:40:11.985Z,872.08
2024-02-02T11:43:18.264Z,820.65
2024-02-02T11:46:26.599Z,706.25
2024-02-02T11:49:37.034Z,750.55
2024-02-02T11:52:46.179Z,713.53
2024-02-02T11:55:54.906Z,584.67
2024-02-02T11:59:20.015Z,666.15
2024-02-02T12:03:16.451Z,678.55
2024-02-02T12:06:21.101Z,513.28
2024-02-02T12:09:33.117Z,506.83
2024-02-02T12:12:46.696Z,488.08
2024-02-02T12:15:53.975Z,476.48
2024-02-02T12:18:57.278Z,414.23
2024-02-02T12:22:00.237Z,407.70
2024-02-02T12:25:10.904Z,311.50
2024-02-02T12:28:13.743Z,287.80
2024-02-02T12:31:16.705Z,202.25
2024-02-02T12:34:19.737Z,216.12
2024-02-02T12:37:22.820Z,119.32
2024-02-02T12:40:26.379Z,123.10
2024-02-02T12:43:30.158Z,87.95
2024-02-02T12:46:46.095Z,19.30
2024-02-02T12:49:49.296Z,15.52
2024-02-02T12:52:54.987Z,23.48
2024-02-02T12:55:57.986Z,16.42
2024-02-02T12:59:01.111Z,26.20
2024-02-02T13:02:06.272Z,29.65
2024-02-02T13:05:12.389Z,16.60
2024-02-02T13:08:17.959Z,14.52
2024-02-02T13:11:21.735Z,18.70
2024-02-02T13:14:30.067Z,146.80
2024-02-02T13:17:34.253Z,196.30
2024-02-02T13:20:38.032Z,219.60
2024-02-02T13:23:40.982Z,300.08
2024-02-02T13:26:44.651Z,315.55
2024-02-02T13:29:57.990Z,372.27
2024-02-02T13:33:07.810Z,398.08
2024-02-02T13:36:12.124Z,538.78
2024-02-02T13:39:22.845Z,576.55
2024-02-02T13:42:27.602Z,559.53
2024-02-02T13:45:31.715Z,643.08
2024-02-02T13:48:45.095Z,645.03
2024-02-02T13:51:48.808Z,588.72
2024-02-02T13:54:54.813Z,589.55
2024-02-02T13:57:59.307Z,772.83
2024-02-02T14:01:12.707Z,601.05
2024-02-02T14:04:26.328Z,669.67
2024-02-02T14:07:29.375Z,823.10
2024-02-02T14:10:46.773Z,798.25
2024-02-02T14:13:50.210Z,866.28
2024-02-02T14:17:04.431Z,846.92
2024-02-02T14:20:10.749Z,917.37
2024-02-02T14:23:15.669Z,881.15
2024-02-02T14:26:18.819Z,773.03
2024-02-02T14:29:23.776Z,846.05
2024-02-02T14:32:26.433Z,700.90
2024-02-02T14:35:29.450Z,783.45
2024-02-02T14:38:32.383Z,792.78
2024-02-02T14:41:36.872Z,855.30
2024-02-02T14:44:40.714Z,840.40
2024-02-02T14:47:44.756Z,755.53
2024-02-02T14:50:49.276Z,920.40
2024-02-02T14:53:53.506Z,919.25
2024-02-02T14:57:01.409Z,793.33
2024-02-02T15:00:11.595Z,756.58
2024-02-02T15:03:14.599Z,860.13
2024-02-02T15:06:18.993Z,838.97
2024-02-02T15:09:23.765Z,905.15
2024-02-02T15:12:27.798Z,898.28
2024-02-02T15:15:32.430Z,873.38
2024-02-02T15:18:36.931Z,900.28
2024-02-02T15:21:39.852Z,859.95
2024-02-02T15:24:43.736Z,849.85
2024-02-02T15:27:46.945Z,898.92
2024-02-02T15:30:50.368Z,878.03
2024-02-02T15:33:55.840Z,982.25
2024-02-02T15:36:59.019Z,974.97
2024-02-02T15:40:02.085Z,999.90
2024-02-02T15:43:06.036Z,925.00
2024-02-02T15:46:14.035Z,925.62
2024-02-02T15:49:17.917Z,999.90
2024-02-02T15:52:20.630Z,923.55
2024-02-02T15:55:27.231Z,927.25
2024-02-02T15:58:31.311Z,968.72
2024-02-02T16:01:36.136Z,947.20
2024-02-02T16:04:41.718Z,999.90
2024-02-02T16:07:46.695Z,996.97
2024-02-02T16:10:51.044Z,999.90
2024-02-02T16:13:55.061Z,924.65
2024-02-02T16:16:59.278Z,957.05
2024-02-02T16:20:02.408Z,891.35
2024-02-02T16:23:05.731Z,987.08
2024-02-02T16:26:11.043Z,921.03
2024-02-02T16:29:17.168Z,919.10
2024-02-02T16:32:21.376Z,949.03
2024-02-02T16:35:24.981Z,916.83
2024-02-02T16:38:29.236Z,994.78
2024-02-02T16:41:33.834Z,939.38
2024-02-02T16:44:37.833Z,883.85
2024-02-02T16:47:41.693Z,994.75
2024-02-02T16:50:45.210Z,923.17
